Macapa, Brazil
Current Conditions -  °F | °C
As of 5:00 AM on Friday 24 Oct 2014 (Local Time) from SBMQ Reporting Station
Clear Clear  
Wind Chill: 77°   Ceiling: Unl
Heat Index: 78°   Visibility: 6mi
Dew Point: 75°   Wind: 5mph
Humidity: 94%   Direction: 350°N
Pressure: 29.83"   Gusts: NA
Location:  0.04°N, 51.05°W
Report Text: SBMQ 240800Z 35004KT CAVOK 25/24 Q1010
Loading
Personal Weather Stations






























Interactive Weather Map
Tropical Storm Tracking
New forecast layout! Learn more

10-Day Weather Forecast

Advertisements
Track Severe Weather on mobile